createdAt,value
2023-11-05T00:00:28.464Z,3.08
2023-11-05T00:02:55.111Z,3.63
2023-11-05T00:05:24.895Z,2.40
2023-11-05T00:07:51.648Z,3.65
2023-11-05T00:10:18.265Z,3.92
2023-11-05T00:12:45.060Z,3.53
2023-11-05T00:15:12.023Z,2.87
2023-11-05T00:17:38.626Z,3.92
2023-11-05T00:20:08.495Z,3.45
2023-11-05T00:22:35.568Z,3.05
2023-11-05T00:25:02.515Z,3.53
2023-11-05T00:27:29.216Z,3.33
2023-11-05T00:29:57.765Z,3.33
2023-11-05T00:32:24.829Z,3.17
2023-11-05T00:34:51.615Z,3.13
2023-11-05T00:37:18.167Z,3.83
2023-11-05T00:39:44.735Z,2.73
2023-11-05T00:42:11.317Z,2.58
2023-11-05T00:44:37.929Z,3.70
2023-11-05T00:47:04.701Z,3.42
2023-11-05T00:49:31.408Z,3.10
2023-11-05T00:51:58.878Z,3.10
2023-11-05T00:54:26.075Z,3.28
2023-11-05T00:56:52.757Z,2.92
2023-11-05T00:59:20.290Z,2.75
2023-11-05T01:01:47.044Z,3.17
2023-11-05T01:04:13.829Z,3.30
2023-11-05T01:06:40.410Z,3.05
2023-11-05T01:09:07.096Z,3.20
2023-11-05T01:11:33.789Z,3.05
2023-11-05T01:14:01.281Z,2.60
2023-11-05T01:16:27.873Z,3.50
2023-11-05T01:18:55.563Z,3.22
2023-11-05T01:21:22.560Z,2.88
2023-11-05T01:23:49.108Z,2.90
2023-11-05T01:26:15.920Z,3.78
2023-11-05T01:28:42.619Z,3.00
2023-11-05T01:31:09.357Z,3.13
2023-11-05T01:33:35.913Z,3.63
2023-11-05T01:36:05.411Z,2.67
2023-11-05T01:38:33.269Z,4.10
2023-11-05T01:40:59.971Z,2.77
2023-11-05T01:43:26.613Z,3.10
2023-11-05T01:45:54.494Z,2.63
2023-11-05T01:48:21.686Z,2.42
2023-11-05T01:50:48.890Z,3.03
2023-11-05T01:53:15.869Z,2.77
2023-11-05T01:55:42.825Z,2.75
2023-11-05T01:58:09.845Z,3.40
2023-11-05T02:00:36.638Z,2.30
2023-11-05T02:03:03.432Z,3.15
2023-11-05T02:05:30.529Z,3.07
2023-11-05T02:07:57.132Z,2.40
2023-11-05T02:10:24.051Z,2.95
2023-11-05T02:12:58.337Z,2.88
2023-11-05T02:15:25.694Z,3.22
2023-11-05T02:17:52.614Z,2.77
2023-11-05T02:20:20.012Z,2.55
2023-11-05T02:22:49.389Z,2.47
2023-11-05T02:25:20.233Z,2.78
2023-11-05T02:27:49.982Z,2.40
2023-11-05T02:30:19.452Z,2.60
2023-11-05T02:32:47.070Z,2.25
2023-11-05T02:35:14.151Z,3.03
2023-11-05T02:37:40.914Z,2.22
2023-11-05T02:40:09.294Z,2.88
2023-11-05T02:42:36.510Z,2.27
2023-11-05T02:45:04.663Z,2.83
2023-11-05T02:47:31.296Z,2.35
2023-11-05T02:49:58.009Z,2.55
2023-11-05T02:52:24.893Z,2.30
2023-11-05T02:54:51.598Z,2.47
2023-11-05T02:57:21.792Z,2.45
2023-11-05T02:59:52.369Z,2.05
2023-11-05T03:02:19.093Z,2.22
2023-11-05T03:04:46.881Z,2.53
2023-11-05T03:07:14.338Z,2.50
2023-11-05T03:09:41.170Z,3.22
2023-11-05T03:12:08.025Z,2.95
2023-11-05T03:14:34.543Z,3.45
2023-11-05T03:17:01.945Z,4.15
2023-11-05T03:19:28.598Z,2.47
2023-11-05T03:21:55.437Z,2.92
2023-11-05T03:24:22.597Z,3.05
2023-11-05T03:26:49.682Z,2.25
2023-11-05T03:29:16.597Z,2.83
2023-11-05T03:31:43.840Z,2.67
2023-11-05T03:34:10.919Z,3.22
2023-11-05T03:36:37.471Z,2.83
2023-11-05T03:39:04.609Z,3.08
2023-11-05T03:41:31.198Z,3.17
2023-11-05T03:43:57.792Z,4.10
2023-11-05T03:46:24.563Z,3.50
2023-11-05T03:48:51.192Z,3.38
2023-11-05T03:51:18.562Z,3.38
2023-11-05T03:53:46.519Z,3.15
2023-11-05T03:56:13.606Z,3.33
2023-11-05T03:58:40.980Z,2.60
2023-11-05T04:01:14.328Z,2.97
2023-11-05T04:03:41.777Z,2.85
2023-11-05T04:06:08.891Z,2.40
2023-11-05T04:08:35.440Z,3.90
2023-11-05T04:11:01.949Z,2.75
2023-11-05T04:13:28.502Z,2.78
2023-11-05T04:15:55.086Z,2.70
2023-11-05T04:18:22.594Z,2.20
2023-11-05T04:20:49.314Z,2.47
2023-11-05T04:23:15.840Z,2.20
2023-11-05T04:25:42.360Z,2.47
2023-11-05T04:28:08.854Z,2.47
2023-11-05T04:30:35.601Z,3.00
2023-11-05T04:33:02.149Z,2.87
2023-11-05T04:35:28.819Z,2.72
2023-11-05T04:37:55.419Z,3.40
2023-11-05T04:40:22.095Z,2.20
2023-11-05T04:42:48.731Z,2.72
2023-11-05T04:45:15.891Z,3.20
2023-11-05T04:47:42.652Z,2.83
2023-11-05T04:50:11.101Z,2.70
2023-11-05T04:52:37.776Z,2.58
2023-11-05T04:55:05.566Z,2.67
2023-11-05T04:57:32.157Z,2.50
2023-11-05T04:59:59.044Z,2.47
2023-11-05T05:02:25.563Z,2.83
2023-11-05T05:04:52.682Z,2.50
2023-11-05T05:07:19.556Z,3.08
2023-11-05T05:09:46.185Z,2.90
2023-11-05T05:12:12.688Z,2.88
2023-11-05T05:14:42.492Z,3.08
2023-11-05T05:17:09.144Z,2.70
2023-11-05T05:19:35.861Z,2.75
2023-11-05T05:22:03.718Z,2.60
2023-11-05T05:24:30.600Z,3.17
2023-11-05T05:26:57.333Z,3.03
2023-11-05T05:29:24.037Z,3.00
2023-11-05T05:31:51.150Z,3.17
2023-11-05T05:34:19.840Z,3.07
2023-11-05T05:36:46.410Z,2.83
2023-11-05T05:39:13.611Z,2.83
2023-11-05T05:41:40.194Z,2.85
2023-11-05T05:44:07.280Z,2.65
2023-11-05T05:46:34.028Z,2.77
2023-11-05T05:49:00.650Z,2.72
2023-11-05T05:51:27.268Z,2.92
2023-11-05T05:53:53.800Z,3.22
2023-11-05T05:56:20.441Z,3.38
2023-11-05T05:58:47.045Z,2.43
2023-11-05T06:01:13.662Z,3.17
2023-11-05T06:03:40.547Z,3.45
2023-11-05T06:06:07.518Z,3.42
2023-11-05T06:08:34.239Z,3.70
2023-11-05T06:11:00.992Z,3.63
2023-11-05T06:13:29.126Z,3.55
2023-11-05T06:15:56.193Z,3.55
2023-11-05T06:18:23.034Z,4.18
2023-11-05T06:20:51.239Z,3.67
2023-11-05T06:23:18.062Z,3.53
2023-11-05T06:25:45.211Z,3.67
2023-11-05T06:28:12.176Z,3.47
2023-11-05T06:30:38.688Z,4.63
2023-11-05T06:33:05.315Z,4.22
2023-11-05T06:35:32.045Z,4.00
2023-11-05T06:37:58.791Z,4.07
2023-11-05T06:40:25.418Z,4.07
2023-11-05T06:42:52.128Z,4.28
2023-11-05T06:45:18.672Z,5.00
2023-11-05T06:47:45.404Z,4.57
2023-11-05T06:50:12.217Z,5.45
2023-11-05T06:52:40.890Z,4.60
2023-11-05T06:55:08.418Z,4.63
2023-11-05T06:57:38.077Z,5.13
2023-11-05T07:00:06.383Z,5.33
2023-11-05T07:02:35.929Z,6.13
2023-11-05T07:05:05.757Z,5.22
2023-11-05T07:07:33.086Z,6.03
2023-11-05T07:10:01.476Z,6.03
2023-11-05T07:12:28.978Z,5.03
2023-11-05T07:14:55.497Z,6.13
2023-11-05T07:17:22.774Z,5.47
2023-11-05T07:19:49.569Z,5.55
2023-11-05T07:22:16.719Z,6.32
2023-11-05T07:24:43.269Z,5.67
2023-11-05T07:27:11.264Z,5.53
2023-11-05T07:29:37.782Z,5.82
2023-11-05T07:32:04.785Z,5.00
2023-11-05T07:34:31.299Z,5.78
2023-11-05T07:36:58.397Z,5.23
2023-11-05T07:39:24.997Z,5.45
2023-11-05T07:41:51.898Z,6.72
2023-11-05T07:44:19.447Z,5.65
2023-11-05T07:46:46.074Z,5.60
2023-11-05T07:49:12.630Z,5.90
2023-11-05T07:51:39.233Z,5.05
2023-11-05T07:54:06.576Z,6.05
2023-11-05T07:56:33.231Z,5.30
2023-11-05T07:59:00.077Z,4.53
2023-11-05T08:01:26.758Z,5.17
2023-11-05T08:03:53.692Z,4.00
2023-11-05T08:06:20.400Z,4.38
2023-11-05T08:08:47.785Z,4.28
2023-11-05T08:11:14.407Z,4.07
2023-11-05T08:13:41.047Z,3.40
2023-11-05T08:16:08.474Z,4.00
2023-11-05T08:18:35.573Z,3.65
2023-11-05T08:21:03.820Z,3.42
2023-11-05T08:23:30.340Z,3.47
2023-11-05T08:25:57.782Z,4.07
2023-11-05T08:28:26.588Z,3.38
2023-11-05T08:30:54.609Z,4.40
2023-11-05T08:33:22.450Z,4.05
2023-11-05T08:35:52.153Z,4.72
2023-11-05T08:38:18.898Z,5.60
2023-11-05T08:40:46.653Z,5.68
2023-11-05T08:43:13.410Z,5.82
2023-11-05T08:45:45.909Z,9.48
2023-11-05T08:48:17.280Z,6.22
2023-11-05T08:50:44.323Z,6.67
2023-11-05T08:53:10.960Z,6.95
2023-11-05T08:55:38.399Z,7.40
2023-11-05T08:58:05.285Z,6.72
2023-11-05T09:00:35.948Z,7.47
2023-11-05T09:03:02.957Z,7.00
2023-11-05T09:05:29.638Z,6.82
2023-11-05T09:07:57.334Z,7.40
2023-11-05T09:10:28.522Z,6.40
2023-11-05T09:12:55.756Z,6.80
2023-11-05T09:15:24.493Z,6.27
2023-11-05T09:17:52.191Z,5.20
2023-11-05T09:20:19.876Z,4.50
2023-11-05T09:22:47.722Z,4.15
2023-11-05T09:25:15.534Z,4.20
2023-11-05T09:27:42.392Z,3.80
2023-11-05T09:30:13.522Z,4.43
2023-11-05T09:32:41.046Z,3.60
2023-11-05T09:35:09.128Z,5.72
2023-11-05T09:37:36.621Z,5.95
2023-11-05T09:40:04.155Z,4.40
2023-11-05T09:42:32.190Z,4.50
2023-11-05T09:45:01.244Z,5.60
2023-11-05T09:47:30.636Z,5.30
2023-11-05T09:49:57.261Z,8.38
2023-11-05T09:52:24.050Z,6.27
2023-11-05T09:54:51.271Z,6.93
2023-11-05T09:57:17.925Z,7.20
2023-11-05T09:59:49.883Z,6.85
2023-11-05T10:02:16.463Z,8.02
2023-11-05T10:04:43.047Z,7.70
2023-11-05T10:07:12.473Z,7.68
2023-11-05T10:09:40.467Z,7.93
2023-11-05T10:12:07.334Z,7.63
2023-11-05T10:14:34.015Z,9.05
2023-11-05T10:17:02.107Z,8.20
2023-11-05T10:19:28.618Z,7.47
2023-11-05T10:21:55.310Z,8.20
2023-11-05T10:24:46.319Z,7.32
2023-11-05T10:27:26.897Z,6.13
2023-11-05T10:29:55.807Z,6.43
2023-11-05T10:32:24.509Z,6.30
2023-11-05T10:34:54.201Z,5.38
2023-11-05T10:37:23.323Z,4.85
2023-11-05T10:39:50.466Z,5.40
2023-11-05T10:42:18.326Z,5.17
2023-11-05T10:44:48.529Z,5.07
2023-11-05T10:47:16.285Z,5.43
2023-11-05T10:49:44.965Z,4.55
2023-11-05T10:52:13.334Z,5.18
2023-11-05T10:54:40.085Z,4.63
2023-11-05T10:57:44.961Z,4.40
2023-11-05T11:00:17.666Z,3.72
2023-11-05T11:02:53.686Z,5.03
2023-11-05T11:05:45.038Z,4.80
2023-11-05T11:08:15.160Z,4.10
2023-11-05T11:10:44.372Z,4.60
2023-11-05T11:13:18.119Z,4.30
2023-11-05T11:15:54.162Z,3.80
2023-11-05T11:18:22.725Z,4.18
2023-11-05T11:20:50.257Z,3.93
2023-11-05T11:23:18.105Z,4.18
2023-11-05T11:26:01.533Z,4.05
2023-11-05T11:28:29.276Z,4.32
2023-11-05T11:30:56.785Z,4.20
2023-11-05T11:33:25.593Z,3.77
2023-11-05T11:35:52.882Z,4.35
2023-11-05T11:38:19.706Z,3.78
2023-11-05T11:40:56.799Z,4.22
2023-11-05T11:43:24.037Z,4.00
2023-11-05T11:45:52.074Z,3.67
2023-11-05T11:48:19.769Z,4.15
2023-11-05T11:50:54.148Z,3.58
2023-11-05T11:53:31.401Z,3.47
2023-11-05T11:55:59.288Z,2.85
2023-11-05T11:58:26.755Z,2.70
2023-11-05T12:00:54.759Z,2.80
2023-11-05T12:03:23.997Z,2.92
2023-11-05T12:05:51.408Z,2.95
2023-11-05T12:08:46.116Z,2.95
2023-11-05T12:11:14.841Z,3.90
2023-11-05T12:13:47.499Z,2.53
2023-11-05T12:16:17.007Z,3.50
2023-11-05T12:18:45.809Z,3.60
2023-11-05T12:21:17.289Z,3.25
2023-11-05T12:23:44.983Z,3.20
2023-11-05T12:26:13.554Z,3.10
2023-11-05T12:28:40.758Z,3.70
2023-11-05T12:31:08.614Z,3.13
2023-11-05T12:33:39.381Z,2.80
2023-11-05T12:36:08.181Z,3.47
2023-11-05T12:38:35.411Z,3.78
2023-11-05T12:41:02.210Z,4.35
2023-11-05T12:43:28.887Z,3.63
2023-11-05T12:45:57.426Z,3.88
2023-11-05T12:48:31.511Z,3.95
2023-11-05T12:51:00.697Z,4.60
2023-11-05T12:53:27.405Z,4.68
2023-11-05T12:56:09.618Z,3.83
2023-11-05T12:58:38.365Z,3.72
2023-11-05T13:01:06.562Z,5.00
2023-11-05T13:03:36.019Z,4.45
2023-11-05T13:06:06.611Z,5.50
2023-11-05T13:08:33.591Z,4.07
2023-11-05T13:11:00.357Z,5.15
2023-11-05T13:13:27.039Z,5.28
2023-11-05T13:15:53.745Z,4.80
2023-11-05T13:18:25.585Z,5.15
2023-11-05T13:20:52.441Z,4.60
2023-11-05T13:23:19.169Z,4.85
2023-11-05T13:25:46.873Z,4.90
2023-11-05T13:28:13.941Z,4.43
2023-11-05T13:30:40.749Z,5.30
2023-11-05T13:33:07.620Z,4.27
2023-11-05T13:35:34.567Z,4.72
2023-11-05T13:38:01.338Z,5.57
2023-11-05T13:40:28.333Z,4.45
2023-11-05T13:42:55.237Z,4.55
2023-11-05T13:45:22.883Z,3.67
2023-11-05T13:47:50.438Z,4.57
2023-11-05T13:50:17.316Z,4.80
2023-11-05T13:52:43.930Z,4.22
2023-11-05T13:55:10.663Z,4.97
2023-11-05T13:57:37.503Z,4.57
2023-11-05T14:00:08.891Z,4.68
2023-11-05T14:02:36.717Z,4.65
2023-11-05T14:05:04.543Z,4.10
2023-11-05T14:07:33.533Z,4.72
2023-11-05T14:10:08.540Z,4.77
2023-11-05T14:12:36.468Z,4.40
2023-11-05T14:15:06.930Z,5.35
2023-11-05T14:17:34.496Z,4.93
2023-11-05T14:20:01.561Z,4.70
2023-11-05T14:22:28.341Z,4.43
2023-11-05T14:24:54.928Z,5.32
2023-11-05T14:27:21.909Z,5.15
2023-11-05T14:29:48.646Z,4.28
2023-11-05T14:32:15.683Z,4.78
2023-11-05T14:34:42.541Z,4.63
2023-11-05T14:37:10.281Z,4.82
2023-11-05T14:39:38.990Z,4.80
2023-11-05T14:42:05.845Z,4.97
2023-11-05T14:44:32.657Z,4.78
2023-11-05T14:46:59.763Z,4.83
2023-11-05T14:49:26.414Z,4.15
2023-11-05T14:51:53.288Z,4.47
2023-11-05T14:54:20.368Z,5.20
2023-11-05T14:56:46.997Z,5.43
2023-11-05T14:59:14.460Z,5.00
2023-11-05T15:01:41.810Z,4.82
2023-11-05T15:04:11.577Z,4.28
2023-11-05T15:06:41.069Z,4.03
2023-11-05T15:09:08.203Z,4.50
2023-11-05T15:11:34.873Z,3.57
2023-11-05T15:14:01.534Z,4.65
2023-11-05T15:16:28.639Z,4.45
2023-11-05T15:18:55.469Z,4.00
2023-11-05T15:21:22.992Z,4.20
2023-11-05T15:23:49.719Z,3.63
2023-11-05T15:26:27.417Z,4.45
2023-11-05T15:28:54.684Z,4.50
2023-11-05T15:31:21.501Z,4.15
2023-11-05T15:33:54.007Z,5.07
2023-11-05T15:36:23.680Z,4.97
2023-11-05T15:38:51.290Z,3.97
2023-11-05T15:41:20.026Z,4.63
2023-11-05T15:43:47.138Z,3.95
2023-11-05T15:46:13.838Z,5.05
2023-11-05T15:48:41.512Z,4.13
2023-11-05T15:51:08.536Z,4.63
2023-11-05T15:53:35.463Z,5.25
2023-11-05T15:56:02.411Z,5.00
2023-11-05T15:58:29.068Z,5.72
2023-11-05T16:00:55.774Z,4.87
2023-11-05T16:03:22.609Z,5.30
2023-11-05T16:05:49.283Z,5.57
2023-11-05T16:08:15.888Z,7.05
2023-11-05T16:10:43.779Z,6.30
2023-11-05T16:13:10.391Z,5.83
2023-11-05T16:15:36.987Z,5.93
2023-11-05T16:18:03.808Z,5.93
2023-11-05T16:20:30.857Z,5.63
2023-11-05T16:22:58.139Z,5.30
2023-11-05T16:25:24.752Z,5.43
2023-11-05T16:27:52.972Z,4.80
2023-11-05T16:30:19.550Z,5.10
2023-11-05T16:32:46.409Z,5.20
2023-11-05T16:35:13.471Z,5.85
2023-11-05T16:37:41.748Z,5.03
2023-11-05T16:40:10.245Z,5.15
2023-11-05T16:42:37.274Z,6.82
2023-11-05T16:45:05.416Z,16.05
2023-11-05T16:47:33.610Z,7.78
2023-11-05T16:50:00.336Z,7.47
2023-11-05T16:52:27.084Z,7.10
2023-11-05T16:54:53.804Z,8.10
2023-11-05T16:57:20.346Z,6.82
2023-11-05T16:59:47.214Z,6.20
2023-11-05T17:02:13.749Z,5.47
2023-11-05T17:04:47.107Z,5.85
2023-11-05T17:07:15.044Z,5.57
2023-11-05T17:09:41.634Z,6.43
2023-11-05T17:12:09.247Z,7.13
2023-11-05T17:14:36.056Z,5.10
2023-11-05T17:17:02.773Z,4.18
2023-11-05T17:19:30.433Z,4.38
2023-11-05T17:21:57.300Z,4.55
2023-11-05T17:24:23.997Z,4.95
2023-11-05T17:26:51.580Z,4.27
2023-11-05T17:29:19.863Z,4.07
2023-11-05T17:31:46.931Z,4.35
2023-11-05T17:34:13.865Z,4.60
2023-11-05T17:36:40.451Z,4.90
2023-11-05T17:39:09.091Z,3.70
2023-11-05T17:41:35.616Z,4.20
2023-11-05T17:44:02.347Z,4.57
2023-11-05T17:46:29.605Z,3.70
2023-11-05T17:48:56.448Z,4.00
2023-11-05T17:51:23.771Z,3.83
2023-11-05T17:53:50.492Z,3.75
2023-11-05T17:56:17.175Z,4.78
2023-11-05T17:58:43.701Z,3.47
2023-11-05T18:01:10.588Z,4.15
2023-11-05T18:03:37.221Z,4.30
2023-11-05T18:06:04.900Z,4.40
2023-11-05T18:08:31.669Z,3.75
2023-11-05T18:10:58.130Z,4.40
2023-11-05T18:13:24.737Z,4.80
2023-11-05T18:15:51.535Z,4.60
2023-11-05T18:18:18.336Z,5.10
2023-11-05T18:20:45.031Z,4.55
2023-11-05T18:23:11.552Z,4.22
2023-11-05T18:25:38.074Z,4.60
2023-11-05T18:28:05.184Z,4.20
2023-11-05T18:30:32.138Z,4.10
2023-11-05T18:32:58.948Z,5.22
2023-11-05T18:35:25.817Z,4.10
2023-11-05T18:37:53.060Z,4.65
2023-11-05T18:40:19.702Z,4.20
2023-11-05T18:42:46.487Z,3.95
2023-11-05T18:45:13.257Z,4.22
2023-11-05T18:47:40.096Z,3.75
2023-11-05T18:50:07.262Z,5.20
2023-11-05T18:52:33.963Z,3.70
2023-11-05T18:55:00.756Z,3.85
2023-11-05T18:57:29.113Z,3.83
2023-11-05T18:59:55.965Z,3.70
2023-11-05T19:02:22.923Z,4.13
2023-11-05T19:04:49.999Z,3.30
2023-11-05T19:07:16.667Z,4.18
2023-11-05T19:09:43.488Z,4.50
2023-11-05T19:12:10.293Z,3.38
2023-11-05T19:14:41.589Z,4.20
2023-11-05T19:17:08.430Z,3.70
2023-11-05T19:19:35.169Z,4.00
2023-11-05T19:22:04.707Z,3.95
2023-11-05T19:24:31.393Z,4.18
2023-11-05T19:26:57.877Z,3.97
2023-11-05T19:29:24.553Z,4.20
2023-11-05T19:31:51.133Z,3.50
2023-11-05T19:34:17.883Z,4.13
2023-11-05T19:36:46.487Z,3.67
2023-11-05T19:39:13.235Z,4.25
2023-11-05T19:41:41.382Z,3.80
2023-11-05T19:44:11.076Z,3.88
2023-11-05T19:46:38.030Z,3.95
2023-11-05T19:49:05.130Z,4.10
2023-11-05T19:51:35.949Z,4.20
2023-11-05T19:54:03.031Z,3.83
2023-11-05T19:56:29.735Z,4.00
2023-11-05T19:58:56.774Z,4.57
2023-11-05T20:01:23.919Z,4.15
2023-11-05T20:03:50.641Z,5.70
2023-11-05T20:06:18.075Z,4.90
2023-11-05T20:08:45.852Z,5.05
2023-11-05T20:11:13.442Z,5.20
2023-11-05T20:13:42.165Z,4.55
2023-11-05T20:16:08.669Z,4.78
2023-11-05T20:18:35.383Z,4.77
2023-11-05T20:21:02.006Z,4.72
2023-11-05T20:23:28.815Z,6.07
2023-11-05T20:25:55.479Z,5.40
2023-11-05T20:28:22.249Z,6.53
2023-11-05T20:30:48.862Z,6.47
2023-11-05T20:33:15.347Z,6.07
2023-11-05T20:35:41.991Z,5.50
2023-11-05T20:38:09.476Z,5.60
2023-11-05T20:40:36.160Z,5.57
2023-11-05T20:43:02.947Z,4.07
2023-11-05T20:45:29.485Z,4.13
2023-11-05T20:47:56.206Z,4.43
2023-11-05T20:50:23.320Z,4.50
2023-11-05T20:52:49.770Z,4.00
2023-11-05T20:55:18.162Z,3.40
2023-11-05T20:57:44.789Z,3.60
2023-11-05T21:00:11.866Z,3.90
2023-11-05T21:02:39.411Z,4.07
2023-11-05T21:05:07.364Z,4.22
2023-11-05T21:07:35.353Z,4.17
2023-11-05T21:10:03.881Z,3.78
2023-11-05T21:12:30.346Z,4.10
2023-11-05T21:14:57.034Z,4.00
2023-11-05T21:17:23.702Z,3.78
2023-11-05T21:19:50.291Z,3.60
2023-11-05T21:22:16.781Z,3.55
2023-11-05T21:24:43.413Z,3.70
2023-11-05T21:27:10.475Z,3.97
2023-11-05T21:29:37.091Z,3.67
2023-11-05T21:32:03.859Z,4.03
2023-11-05T21:34:30.482Z,3.95
2023-11-05T21:36:56.939Z,4.72
2023-11-05T21:39:24.598Z,3.88
2023-11-05T21:41:52.875Z,4.43
2023-11-05T21:44:19.667Z,5.20
2023-11-05T21:46:46.414Z,5.30
2023-11-05T21:49:13.018Z,4.72
2023-11-05T21:51:40.014Z,4.35
2023-11-05T21:54:07.194Z,4.07
2023-11-05T21:56:33.906Z,4.20
2023-11-05T21:59:00.466Z,4.03
2023-11-05T22:01:29.074Z,4.03
2023-11-05T22:03:55.786Z,3.50
2023-11-05T22:06:22.453Z,3.70
2023-11-05T22:08:49.137Z,3.53
2023-11-05T22:11:15.716Z,2.90
2023-11-05T22:13:42.555Z,3.40
2023-11-05T22:16:10.348Z,3.28
2023-11-05T22:18:37.599Z,3.22
2023-11-05T22:21:07.053Z,3.30
2023-11-05T22:23:34.520Z,3.17
2023-11-05T22:26:01.176Z,3.20
2023-11-05T22:28:27.714Z,2.90
2023-11-05T22:30:54.307Z,3.33
2023-11-05T22:33:23.436Z,2.80
2023-11-05T22:35:50.116Z,3.08
2023-11-05T22:38:16.669Z,2.92
2023-11-05T22:40:44.741Z,3.10
2023-11-05T22:43:11.443Z,2.97
2023-11-05T22:45:38.335Z,2.90
2023-11-05T22:48:07.112Z,3.10
2023-11-05T22:50:34.783Z,2.75
2023-11-05T22:53:01.357Z,3.00
2023-11-05T22:55:27.989Z,3.00
2023-11-05T22:57:54.506Z,2.80
2023-11-05T23:00:30.344Z,3.47
2023-11-05T23:02:57.364Z,3.08
2023-11-05T23:05:24.449Z,2.95
2023-11-05T23:07:51.059Z,3.15
2023-11-05T23:10:18.196Z,2.57
2023-11-05T23:12:46.602Z,2.97
2023-11-05T23:15:13.583Z,3.13
2023-11-05T23:17:41.205Z,2.83
2023-11-05T23:20:08.732Z,3.15
2023-11-05T23:22:35.252Z,4.27
2023-11-05T23:25:01.730Z,6.70
2023-11-05T23:27:28.380Z,8.98
2023-11-05T23:29:54.853Z,10.18
2023-11-05T23:32:22.040Z,8.23
2023-11-05T23:34:50.223Z,7.30
2023-11-05T23:37:16.841Z,6.20
2023-11-05T23:39:46.806Z,5.68
2023-11-05T23:42:13.476Z,5.28
2023-11-05T23:44:44.493Z,4.43
2023-11-05T23:47:11.296Z,4.40
2023-11-05T23:49:37.772Z,3.67
2023-11-05T23:52:04.664Z,3.80
2023-11-05T23:54:32.483Z,3.10
2023-11-05T23:56:59.558Z,3.35
2023-11-05T23:59:26.084Z,3.03
